sensor_id;sensor_type;location;lat;lon;timestamp;pressure;altitude;pressure_sealevel;temperature;humidity
16525;BME280;8375;33.594;-117.718;2023-07-08T00:00:56;99657.13;;;25.93;49.11
16525;BME280;8375;33.594;-117.718;2023-07-08T00:03:25;99653.09;;;25.79;49.32
16525;BME280;8375;33.594;-117.718;2023-07-08T00:05:55;99651.00;;;25.81;49.56
16525;BME280;8375;33.594;-117.718;2023-07-08T00:08:24;99650.78;;;25.71;49.74
16525;BME280;8375;33.594;-117.718;2023-07-08T00:10:53;99646.06;;;25.61;49.33
16525;BME280;8375;33.594;-117.718;2023-07-08T00:13:24;99645.81;;;25.62;50.00
16525;BME280;8375;33.594;-117.718;2023-07-08T00:15:53;99637.84;;;25.62;49.57
16525;BME280;8375;33.594;-117.718;2023-07-08T00:18:21;99639.81;;;25.55;50.55
16525;BME280;8375;33.594;-117.718;2023-07-08T00:20:51;99636.56;;;25.53;50.12
16525;BME280;8375;33.594;-117.718;2023-07-08T00:23:20;99640.63;;;25.56;50.33
16525;BME280;8375;33.594;-117.718;2023-07-08T00:25:49;99635.06;;;25.57;50.11
16525;BME280;8375;33.594;-117.718;2023-07-08T00:28:19;99642.13;;;25.52;50.48
16525;BME280;8375;33.594;-117.718;2023-07-08T00:30:49;99633.81;;;25.48;50.16
16525;BME280;8375;33.594;-117.718;2023-07-08T00:33:19;99644.16;;;25.38;50.58
16525;BME280;8375;33.594;-117.718;2023-07-08T00:35:48;99633.88;;;25.29;50.70
16525;BME280;8375;33.594;-117.718;2023-07-08T00:38:20;99634.81;;;25.35;50.31
16525;BME280;8375;33.594;-117.718;2023-07-08T00:40:57;99631.22;;;25.29;50.97
16525;BME280;8375;33.594;-117.718;2023-07-08T00:43:34;99632.25;;;25.28;50.66
16525;BME280;8375;33.594;-117.718;2023-07-08T00:46:19;99632.59;;;25.20;50.94
16525;BME280;8375;33.594;-117.718;2023-07-08T00:48:57;99629.16;;;25.19;51.08
16525;BME280;8375;33.594;-117.718;2023-07-08T00:51:28;99626.13;;;25.16;50.52
16525;BME280;8375;33.594;-117.718;2023-07-08T00:53:58;99623.53;;;24.97;50.63
16525;BME280;8375;33.594;-117.718;2023-07-08T00:56:31;99624.25;;;24.93;50.84
16525;BME280;8375;33.594;-117.718;2023-07-08T00:59:05;99622.59;;;24.80;51.11
16525;BME280;8375;33.594;-117.718;2023-07-08T01:01:41;99627.38;;;24.71;51.33
16525;BME280;8375;33.594;-117.718;2023-07-08T01:04:14;99623.31;;;24.68;51.58
16525;BME280;8375;33.594;-117.718;2023-07-08T01:06:47;99628.63;;;24.68;52.24
16525;BME280;8375;33.594;-117.718;2023-07-08T01:09:25;99623.16;;;24.51;51.65
16525;BME280;8375;33.594;-117.718;2023-07-08T01:11:56;99621.28;;;24.21;53.61
16525;BME280;8375;33.594;-117.718;2023-07-08T01:14:28;99618.84;;;24.20;53.13
16525;BME280;8375;33.594;-117.718;2023-07-08T01:17:01;99626.06;;;24.12;52.73
16525;BME280;8375;33.594;-117.718;2023-07-08T01:19:31;99620.97;;;23.92;53.10
16525;BME280;8375;33.594;-117.718;2023-07-08T01:22:02;99629.34;;;23.89;53.30
16525;BME280;8375;33.594;-117.718;2023-07-08T01:24:33;99635.34;;;23.78;53.57
16525;BME280;8375;33.594;-117.718;2023-07-08T01:27:04;99632.34;;;23.74;54.15
16525;BME280;8375;33.594;-117.718;2023-07-08T01:29:34;99630.47;;;23.56;54.37
16525;BME280;8375;33.594;-117.718;2023-07-08T01:32:03;99636.63;;;23.50;54.56
16525;BME280;8375;33.594;-117.718;2023-07-08T01:34:32;99638.41;;;23.56;54.63
16525;BME280;8375;33.594;-117.718;2023-07-08T01:37:04;99634.53;;;23.58;55.13
16525;BME280;8375;33.594;-117.718;2023-07-08T01:39:34;99637.78;;;23.61;54.72
16525;BME280;8375;33.594;-117.718;2023-07-08T01:42:03;99640.53;;;23.47;55.20
16525;BME280;8375;33.594;-117.718;2023-07-08T01:44:34;99640.38;;;23.42;55.42
16525;BME280;8375;33.594;-117.718;2023-07-08T01:47:07;99646.97;;;23.33;55.98
16525;BME280;8375;33.594;-117.718;2023-07-08T01:49:39;99639.13;;;23.12;56.31
16525;BME280;8375;33.594;-117.718;2023-07-08T01:52:11;99647.13;;;23.06;56.60
16525;BME280;8375;33.594;-117.718;2023-07-08T01:54:40;99644.31;;;23.00;57.08
16525;BME280;8375;33.594;-117.718;2023-07-08T01:57:09;99649.19;;;23.04;57.82
16525;BME280;8375;33.594;-117.718;2023-07-08T01:59:37;99651.47;;;22.93;57.65
16525;BME280;8375;33.594;-117.718;2023-07-08T02:02:06;99652.78;;;22.77;58.14
16525;BME280;8375;33.594;-117.718;2023-07-08T02:04:35;99646.94;;;22.68;58.72
16525;BME280;8375;33.594;-117.718;2023-07-08T02:07:03;99654.03;;;22.68;59.55
16525;BME280;8375;33.594;-117.718;2023-07-08T02:09:34;99654.34;;;22.53;59.93
16525;BME280;8375;33.594;-117.718;2023-07-08T02:12:03;99648.66;;;22.42;60.20
16525;BME280;8375;33.594;-117.718;2023-07-08T02:14:32;99648.28;;;22.25;60.87
16525;BME280;8375;33.594;-117.718;2023-07-08T02:17:01;99652.81;;;22.11;61.39
16525;BME280;8375;33.594;-117.718;2023-07-08T02:19:32;99660.56;;;22.00;61.85
16525;BME280;8375;33.594;-117.718;2023-07-08T02:22:00;99665.88;;;21.79;62.40
16525;BME280;8375;33.594;-117.718;2023-07-08T02:24:30;99661.84;;;21.70;63.04
16525;BME280;8375;33.594;-117.718;2023-07-08T02:27:01;99671.75;;;21.61;63.59
16525;BME280;8375;33.594;-117.718;2023-07-08T02:29:29;99662.19;;;21.47;63.84
16525;BME280;8375;33.594;-117.718;2023-07-08T02:31:59;99664.03;;;21.39;64.52
16525;BME280;8375;33.594;-117.718;2023-07-08T02:34:27;99662.41;;;21.32;64.90
16525;BME280;8375;33.594;-117.718;2023-07-08T02:36:56;99663.38;;;21.17;65.54
16525;BME280;8375;33.594;-117.718;2023-07-08T02:39:25;99657.88;;;20.99;66.14
16525;BME280;8375;33.594;-117.718;2023-07-08T02:41:53;99662.28;;;20.78;67.09
16525;BME280;8375;33.594;-117.718;2023-07-08T02:44:24;99655.94;;;20.65;67.53
16525;BME280;8375;33.594;-117.718;2023-07-08T02:46:53;99661.19;;;20.65;67.67
16525;BME280;8375;33.594;-117.718;2023-07-08T02:49:21;99667.25;;;20.59;68.26
16525;BME280;8375;33.594;-117.718;2023-07-08T02:51:50;99664.84;;;20.58;68.54
16525;BME280;8375;33.594;-117.718;2023-07-08T02:54:19;99661.53;;;20.49;68.56
16525;BME280;8375;33.594;-117.718;2023-07-08T02:56:47;99665.34;;;20.40;69.05
16525;BME280;8375;33.594;-117.718;2023-07-08T02:59:16;99666.28;;;20.25;69.93
16525;BME280;8375;33.594;-117.718;2023-07-08T03:01:46;99670.56;;;20.26;70.48
16525;BME280;8375;33.594;-117.718;2023-07-08T03:04:16;99671.72;;;20.17;70.49
16525;BME280;8375;33.594;-117.718;2023-07-08T03:06:45;99671.94;;;20.15;71.27
16525;BME280;8375;33.594;-117.718;2023-07-08T03:09:14;99681.63;;;20.08;70.64
16525;BME280;8375;33.594;-117.718;2023-07-08T03:11:43;99681.94;;;19.98;71.85
16525;BME280;8375;33.594;-117.718;2023-07-08T03:14:12;99684.72;;;19.90;72.14
16525;BME280;8375;33.594;-117.718;2023-07-08T03:16:41;99687.47;;;19.82;72.25
16525;BME280;8375;33.594;-117.718;2023-07-08T03:19:12;99693.88;;;19.72;72.36
16525;BME280;8375;33.594;-117.718;2023-07-08T03:21:43;99684.50;;;19.63;72.59
16525;BME280;8375;33.594;-117.718;2023-07-08T03:24:14;99699.03;;;19.59;73.13
16525;BME280;8375;33.594;-117.718;2023-07-08T03:26:46;99697.63;;;19.56;72.86
16525;BME280;8375;33.594;-117.718;2023-07-08T03:29:20;99703.91;;;19.62;73.58
16525;BME280;8375;33.594;-117.718;2023-07-08T03:31:49;99703.88;;;19.55;73.36
16525;BME280;8375;33.594;-117.718;2023-07-08T03:34:19;99710.69;;;19.49;73.41
16525;BME280;8375;33.594;-117.718;2023-07-08T03:36:49;99712.44;;;19.42;74.11
16525;BME280;8375;33.594;-117.718;2023-07-08T03:39:21;99714.28;;;19.42;74.05
16525;BME280;8375;33.594;-117.718;2023-07-08T03:41:51;99719.09;;;19.38;74.77
16525;BME280;8375;33.594;-117.718;2023-07-08T03:44:20;99718.03;;;19.32;74.82
16525;BME280;8375;33.594;-117.718;2023-07-08T03:46:49;99719.22;;;19.30;75.05
16525;BME280;8375;33.594;-117.718;2023-07-08T03:49:21;99725.06;;;19.25;75.56
16525;BME280;8375;33.594;-117.718;2023-07-08T03:51:51;99727.84;;;19.24;75.37
16525;BME280;8375;33.594;-117.718;2023-07-08T03:54:21;99727.91;;;19.09;76.02
16525;BME280;8375;33.594;-117.718;2023-07-08T03:56:50;99724.75;;;18.98;76.56
16525;BME280;8375;33.594;-117.718;2023-07-08T03:59:19;99727.56;;;18.97;76.72
16525;BME280;8375;33.594;-117.718;2023-07-08T04:01:48;99736.09;;;18.99;76.88
16525;BME280;8375;33.594;-117.718;2023-07-08T04:04:16;99731.91;;;18.89;76.54
16525;BME280;8375;33.594;-117.718;2023-07-08T04:06:47;99733.09;;;18.87;77.42
16525;BME280;8375;33.594;-117.718;2023-07-08T04:09:17;99733.53;;;18.90;77.32
16525;BME280;8375;33.594;-117.718;2023-07-08T04:11:46;99729.31;;;18.74;77.64
16525;BME280;8375;33.594;-117.718;2023-07-08T04:14:14;99739.34;;;18.71;78.68
16525;BME280;8375;33.594;-117.718;2023-07-08T04:16:46;99733.72;;;18.74;78.46
16525;BME280;8375;33.594;-117.718;2023-07-08T04:19:17;99732.41;;;18.63;78.93
16525;BME280;8375;33.594;-117.718;2023-07-08T04:21:48;99740.09;;;18.65;79.52
16525;BME280;8375;33.594;-117.718;2023-07-08T04:24:17;99744.91;;;18.61;79.44
16525;BME280;8375;33.594;-117.718;2023-07-08T04:26:47;99749.69;;;18.57;79.69
16525;BME280;8375;33.594;-117.718;2023-07-08T04:29:18;99754.69;;;18.52;79.74
16525;BME280;8375;33.594;-117.718;2023-07-08T04:31:47;99763.28;;;18.46;80.38
16525;BME280;8375;33.594;-117.718;2023-07-08T04:34:16;99767.63;;;18.39;80.51
16525;BME280;8375;33.594;-117.718;2023-07-08T04:36:47;99767.16;;;18.35;81.26
16525;BME280;8375;33.594;-117.718;2023-07-08T04:39:16;99774.59;;;18.31;81.43
16525;BME280;8375;33.594;-117.718;2023-07-08T04:41:45;99767.06;;;18.28;82.06
16525;BME280;8375;33.594;-117.718;2023-07-08T04:44:13;99767.25;;;18.27;82.07
16525;BME280;8375;33.594;-117.718;2023-07-08T04:46:46;99770.13;;;18.17;82.98
16525;BME280;8375;33.594;-117.718;2023-07-08T04:49:17;99770.13;;;18.17;83.51
16525;BME280;8375;33.594;-117.718;2023-07-08T04:51:47;99779.38;;;18.13;83.97
16525;BME280;8375;33.594;-117.718;2023-07-08T04:54:16;99779.38;;;18.13;84.34
16525;BME280;8375;33.594;-117.718;2023-07-08T04:56:46;99790.59;;;18.07;84.56
16525;BME280;8375;33.594;-117.718;2023-07-08T04:59:16;99783.53;;;17.99;85.07
16525;BME280;8375;33.594;-117.718;2023-07-08T05:01:45;99782.75;;;17.98;85.74
16525;BME280;8375;33.594;-117.718;2023-07-08T05:04:15;99796.03;;;17.97;85.63
16525;BME280;8375;33.594;-117.718;2023-07-08T05:06:44;99792.59;;;17.96;86.70
16525;BME280;8375;33.594;-117.718;2023-07-08T05:09:14;99800.44;;;18.05;86.82
16525;BME280;8375;33.594;-117.718;2023-07-08T05:11:43;99792.22;;;18.08;85.63
16525;BME280;8375;33.594;-117.718;2023-07-08T05:14:12;99790.09;;;18.03;86.08
16525;BME280;8375;33.594;-117.718;2023-07-08T05:16:41;99789.34;;;17.94;86.01
16525;BME280;8375;33.594;-117.718;2023-07-08T05:19:10;99795.00;;;17.83;86.67
16525;BME280;8375;33.594;-117.718;2023-07-08T05:21:39;99794.88;;;17.76;86.50
16525;BME280;8375;33.594;-117.718;2023-07-08T05:26:45;99788.59;;;17.62;87.80
16525;BME280;8375;33.594;-117.718;2023-07-08T05:29:13;99787.81;;;17.53;88.77
16525;BME280;8375;33.594;-117.718;2023-07-08T05:31:42;99791.59;;;17.51;89.35
16525;BME280;8375;33.594;-117.718;2023-07-08T05:34:11;99793.09;;;17.45;89.26
16525;BME280;8375;33.594;-117.718;2023-07-08T05:36:40;99795.91;;;17.43;89.90
16525;BME280;8375;33.594;-117.718;2023-07-08T05:39:08;99795.72;;;17.45;90.37
16525;BME280;8375;33.594;-117.718;2023-07-08T05:41:37;99797.59;;;17.36;90.48
16525;BME280;8375;33.594;-117.718;2023-07-08T05:44:07;99791.84;;;17.33;90.87
16525;BME280;8375;33.594;-117.718;2023-07-08T05:46:36;99805.31;;;17.29;91.03
16525;BME280;8375;33.594;-117.718;2023-07-08T05:49:05;99796.81;;;17.27;90.90
16525;BME280;8375;33.594;-117.718;2023-07-08T05:51:35;99794.72;;;17.23;91.29
16525;BME280;8375;33.594;-117.718;2023-07-08T05:54:04;99796.03;;;17.19;91.41
16525;BME280;8375;33.594;-117.718;2023-07-08T05:56:33;99799.00;;;17.15;91.57
16525;BME280;8375;33.594;-117.718;2023-07-08T05:59:02;99797.53;;;17.13;92.30
16525;BME280;8375;33.594;-117.718;2023-07-08T06:01:32;99791.81;;;17.09;92.01
16525;BME280;8375;33.594;-117.718;2023-07-08T06:04:01;99802.31;;;17.09;92.44
16525;BME280;8375;33.594;-117.718;2023-07-08T06:06:30;99798.06;;;17.08;92.25
16525;BME280;8375;33.594;-117.718;2023-07-08T06:08:59;99801.03;;;17.05;93.24
16525;BME280;8375;33.594;-117.718;2023-07-08T06:11:28;99802.81;;;17.05;94.09
16525;BME280;8375;33.594;-117.718;2023-07-08T06:13:57;99804.63;;;16.96;94.14
16525;BME280;8375;33.594;-117.718;2023-07-08T06:16:27;99808.06;;;16.96;94.70
16525;BME280;8375;33.594;-117.718;2023-07-08T06:18:58;99812.19;;;16.99;94.47
16525;BME280;8375;33.594;-117.718;2023-07-08T06:21:27;99808.22;;;16.95;94.72
16525;BME280;8375;33.594;-117.718;2023-07-08T06:23:55;99817.56;;;16.97;94.86
16525;BME280;8375;33.594;-117.718;2023-07-08T06:26:24;99820.03;;;16.99;94.61
16525;BME280;8375;33.594;-117.718;2023-07-08T06:28:53;99811.19;;;17.00;94.89
16525;BME280;8375;33.594;-117.718;2023-07-08T06:31:21;99810.66;;;17.05;94.63
16525;BME280;8375;33.594;-117.718;2023-07-08T06:33:50;99812.31;;;17.06;94.76
16525;BME280;8375;33.594;-117.718;2023-07-08T06:36:20;99807.75;;;16.99;95.18
16525;BME280;8375;33.594;-117.718;2023-07-08T06:38:49;99807.25;;;17.04;95.45
16525;BME280;8375;33.594;-117.718;2023-07-08T06:41:18;99806.25;;;17.05;95.34
16525;BME280;8375;33.594;-117.718;2023-07-08T06:43:47;99810.97;;;17.10;95.13
16525;BME280;8375;33.594;-117.718;2023-07-08T06:46:16;99810.19;;;17.09;95.03
16525;BME280;8375;33.594;-117.718;2023-07-08T06:48:45;99804.63;;;16.96;94.61
16525;BME280;8375;33.594;-117.718;2023-07-08T06:51:14;99809.03;;;16.95;94.27
16525;BME280;8375;33.594;-117.718;2023-07-08T06:53:44;99815.13;;;16.96;95.14
16525;BME280;8375;33.594;-117.718;2023-07-08T06:56:13;99805.94;;;17.00;95.06
16525;BME280;8375;33.594;-117.718;2023-07-08T06:58:41;99813.63;;;17.01;95.10
16525;BME280;8375;33.594;-117.718;2023-07-08T07:01:10;99807.41;;;17.03;95.12
16525;BME280;8375;33.594;-117.718;2023-07-08T07:03:40;99812.16;;;17.07;94.48
16525;BME280;8375;33.594;-117.718;2023-07-08T07:06:09;99808.00;;;17.13;93.76
16525;BME280;8375;33.594;-117.718;2023-07-08T07:08:38;99803.44;;;17.07;94.21
16525;BME280;8375;33.594;-117.718;2023-07-08T07:11:08;99807.91;;;17.06;93.96
16525;BME280;8375;33.594;-117.718;2023-07-08T07:13:37;99803.16;;;17.01;94.67
16525;BME280;8375;33.594;-117.718;2023-07-08T07:16:06;99804.97;;;16.93;95.58
16525;BME280;8375;33.594;-117.718;2023-07-08T07:18:35;99796.75;;;16.96;94.91
16525;BME280;8375;33.594;-117.718;2023-07-08T07:21:04;99796.16;;;16.77;95.44
16525;BME280;8375;33.594;-117.718;2023-07-08T07:23:33;99796.53;;;16.57;96.36
16525;BME280;8375;33.594;-117.718;2023-07-08T07:26:02;99801.31;;;16.46;97.13
16525;BME280;8375;33.594;-117.718;2023-07-08T07:28:33;99801.63;;;16.42;97.48
16525;BME280;8375;33.594;-117.718;2023-07-08T07:31:02;99805.44;;;16.32;97.89
16525;BME280;8375;33.594;-117.718;2023-07-08T07:33:32;99812.94;;;16.35;97.64
16525;BME280;8375;33.594;-117.718;2023-07-08T07:36:02;99799.66;;;16.45;97.04
16525;BME280;8375;33.594;-117.718;2023-07-08T07:38:33;99797.22;;;16.51;96.49
16525;BME280;8375;33.594;-117.718;2023-07-08T07:41:03;99794.06;;;16.56;96.04
16525;BME280;8375;33.594;-117.718;2023-07-08T07:43:41;99790.63;;;16.64;95.85
16525;BME280;8375;33.594;-117.718;2023-07-08T07:46:10;99787.34;;;16.70;95.62
16525;BME280;8375;33.594;-117.718;2023-07-08T07:48:39;99790.09;;;16.77;94.92
16525;BME280;8375;33.594;-117.718;2023-07-08T07:51:08;99778.28;;;16.81;95.06
16525;BME280;8375;33.594;-117.718;2023-07-08T07:53:37;99781.09;;;16.79;94.27
16525;BME280;8375;33.594;-117.718;2023-07-08T07:56:06;99783.38;;;16.82;94.55
16525;BME280;8375;33.594;-117.718;2023-07-08T07:58:35;99774.91;;;16.64;94.87
16525;BME280;8375;33.594;-117.718;2023-07-08T08:01:06;99773.94;;;16.65;95.22
16525;BME280;8375;33.594;-117.718;2023-07-08T08:03:34;99772.63;;;16.61;95.68
16525;BME280;8375;33.594;-117.718;2023-07-08T08:06:03;99773.28;;;16.63;95.51
16525;BME280;8375;33.594;-117.718;2023-07-08T08:08:32;99770.31;;;16.66;95.15
16525;BME280;8375;33.594;-117.718;2023-07-08T08:11:01;99775.88;;;16.71;95.07
16525;BME280;8375;33.594;-117.718;2023-07-08T08:13:29;99771.59;;;16.78;94.21
16525;BME280;8375;33.594;-117.718;2023-07-08T08:15:59;99772.06;;;16.82;93.63
16525;BME280;8375;33.594;-117.718;2023-07-08T08:18:29;99782.06;;;16.86;93.28
16525;BME280;8375;33.594;-117.718;2023-07-08T08:20:58;99779.88;;;16.90;93.08
16525;BME280;8375;33.594;-117.718;2023-07-08T08:23:27;99783.16;;;16.92;93.42
16525;BME280;8375;33.594;-117.718;2023-07-08T08:25:56;99773.50;;;16.93;93.12
16525;BME280;8375;33.594;-117.718;2023-07-08T08:28:25;99780.06;;;16.97;93.38
16525;BME280;8375;33.594;-117.718;2023-07-08T08:30:54;99785.97;;;16.91;94.09
16525;BME280;8375;33.594;-117.718;2023-07-08T08:33:23;99783.69;;;16.88;93.53
16525;BME280;8375;33.594;-117.718;2023-07-08T08:35:53;99775.66;;;16.81;94.05
16525;BME280;8375;33.594;-117.718;2023-07-08T08:38:22;99770.97;;;16.68;93.72
16525;BME280;8375;33.594;-117.718;2023-07-08T08:40:51;99778.53;;;16.63;94.48
16525;BME280;8375;33.594;-117.718;2023-07-08T08:43:21;99777.03;;;16.60;94.71
16525;BME280;8375;33.594;-117.718;2023-07-08T08:45:55;99774.72;;;16.65;95.03
16525;BME280;8375;33.594;-117.718;2023-07-08T08:48:28;99769.00;;;16.70;94.66
16525;BME280;8375;33.594;-117.718;2023-07-08T08:51:05;99767.69;;;16.74;94.70
16525;BME280;8375;33.594;-117.718;2023-07-08T08:53:35;99770.13;;;16.76;93.95
16525;BME280;8375;33.594;-117.718;2023-07-08T08:56:10;99756.38;;;16.65;94.51
16525;BME280;8375;33.594;-117.718;2023-07-08T08:58:44;99770.94;;;16.76;94.23
16525;BME280;8375;33.594;-117.718;2023-07-08T09:01:15;99766.69;;;16.75;94.23
16525;BME280;8375;33.594;-117.718;2023-07-08T09:03:49;99769.44;;;16.82;94.17
16525;BME280;8375;33.594;-117.718;2023-07-08T09:06:25;99768.63;;;16.81;93.98
16525;BME280;8375;33.594;-117.718;2023-07-08T09:08:56;99760.94;;;16.80;94.98
16525;BME280;8375;33.594;-117.718;2023-07-08T09:11:39;99763.78;;;16.62;93.88
16525;BME280;8375;33.594;-117.718;2023-07-08T09:14:15;99771.00;;;16.51;94.05
16525;BME280;8375;33.594;-117.718;2023-07-08T09:16:49;99764.13;;;16.50;94.81
16525;BME280;8375;33.594;-117.718;2023-07-08T09:19:23;99766.75;;;16.50;95.23
16525;BME280;8375;33.594;-117.718;2023-07-08T09:21:59;99772.16;;;16.49;95.63
16525;BME280;8375;33.594;-117.718;2023-07-08T09:24:35;99760.88;;;16.48;96.18
16525;BME280;8375;33.594;-117.718;2023-07-08T09:27:06;99766.91;;;16.49;95.82
16525;BME280;8375;33.594;-117.718;2023-07-08T09:29:35;99773.44;;;16.53;95.62
16525;BME280;8375;33.594;-117.718;2023-07-08T09:32:15;99764.63;;;16.46;96.54
16525;BME280;8375;33.594;-117.718;2023-07-08T09:34:46;99766.78;;;16.34;96.00
16525;BME280;8375;33.594;-117.718;2023-07-08T09:37:26;99766.47;;;16.28;96.28
16525;BME280;8375;33.594;-117.718;2023-07-08T09:39:55;99768.09;;;16.38;95.56
16525;BME280;8375;33.594;-117.718;2023-07-08T09:42:27;99769.41;;;16.42;95.60
16525;BME280;8375;33.594;-117.718;2023-07-08T09:44:58;99769.38;;;16.50;96.16
16525;BME280;8375;33.594;-117.718;2023-07-08T09:47:30;99764.47;;;16.47;95.58
16525;BME280;8375;33.594;-117.718;2023-07-08T09:50:01;99775.91;;;16.54;95.29
16525;BME280;8375;33.594;-117.718;2023-07-08T09:52:33;99760.03;;;16.48;94.98
16525;BME280;8375;33.594;-117.718;2023-07-08T09:55:01;99765.78;;;16.43;95.47
16525;BME280;8375;33.594;-117.718;2023-07-08T09:57:31;99768.09;;;16.46;95.50
16525;BME280;8375;33.594;-117.718;2023-07-08T10:00:02;99770.19;;;16.51;95.17
16525;BME280;8375;33.594;-117.718;2023-07-08T10:02:40;99765.78;;;16.51;95.14
16525;BME280;8375;33.594;-117.718;2023-07-08T10:05:15;99769.19;;;16.52;94.92
16525;BME280;8375;33.594;-117.718;2023-07-08T10:07:48;99764.78;;;16.52;94.37
16525;BME280;8375;33.594;-117.718;2023-07-08T10:10:24;99778.06;;;16.42;93.91
16525;BME280;8375;33.594;-117.718;2023-07-08T10:12:57;99775.47;;;16.26;95.06
16525;BME280;8375;33.594;-117.718;2023-07-08T10:15:32;99768.78;;;16.23;94.93
16525;BME280;8375;33.594;-117.718;2023-07-08T10:18:02;99774.66;;;16.17;95.76
16525;BME280;8375;33.594;-117.718;2023-07-08T10:20:38;99769.75;;;16.14;95.02
16525;BME280;8375;33.594;-117.718;2023-07-08T10:23:22;99770.56;;;16.15;95.59
16525;BME280;8375;33.594;-117.718;2023-07-08T10:26:00;99771.22;;;16.17;95.09
16525;BME280;8375;33.594;-117.718;2023-07-08T10:28:37;99770.75;;;16.05;95.21
16525;BME280;8375;33.594;-117.718;2023-07-08T10:31:16;99771.41;;;15.98;95.98
16525;BME280;8375;33.594;-117.718;2023-07-08T10:34:06;99769.09;;;15.87;95.78
16525;BME280;8375;33.594;-117.718;2023-07-08T10:36:47;99773.47;;;15.78;96.37
16525;BME280;8375;33.594;-117.718;2023-07-08T10:39:33;99774.03;;;15.90;96.69
16525;BME280;8375;33.594;-117.718;2023-07-08T10:42:09;99772.53;;;15.96;96.02
16525;BME280;8375;33.594;-117.718;2023-07-08T10:44:45;99776.97;;;15.95;95.96
16525;BME280;8375;33.594;-117.718;2023-07-08T10:47:31;99790.19;;;15.94;96.54
16525;BME280;8375;33.594;-117.718;2023-07-08T10:50:17;99785.63;;;16.04;96.13
16525;BME280;8375;33.594;-117.718;2023-07-08T10:52:53;99776.63;;;15.98;96.41
16525;BME280;8375;33.594;-117.718;2023-07-08T10:55:40;99786.72;;;15.85;96.22
16525;BME280;8375;33.594;-117.718;2023-07-08T10:58:38;99783.63;;;15.73;97.02
16525;BME280;8375;33.594;-117.718;2023-07-08T11:01:17;99781.00;;;15.65;97.71
16525;BME280;8375;33.594;-117.718;2023-07-08T11:04:10;99784.59;;;15.64;98.06
16525;BME280;8375;33.594;-117.718;2023-07-08T11:06:47;99783.75;;;15.63;98.47
16525;BME280;8375;33.594;-117.718;2023-07-08T11:09:21;99789.31;;;15.68;97.82
16525;BME280;8375;33.594;-117.718;2023-07-08T11:11:58;99781.47;;;15.77;97.18
16525;BME280;8375;33.594;-117.718;2023-07-08T11:14:33;99784.75;;;15.70;96.89
16525;BME280;8375;33.594;-117.718;2023-07-08T11:17:11;99778.34;;;15.57;97.68
16525;BME280;8375;33.594;-117.718;2023-07-08T11:19:48;99779.13;;;15.40;98.01
16525;BME280;8375;33.594;-117.718;2023-07-08T11:22:21;99785.16;;;15.33;98.89
16525;BME280;8375;33.594;-117.718;2023-07-08T11:24:52;99783.00;;;15.28;98.58
16525;BME280;8375;33.594;-117.718;2023-07-08T11:27:27;99797.28;;;15.34;98.54
16525;BME280;8375;33.594;-117.718;2023-07-08T11:29:58;99788.91;;;15.30;98.75
16525;BME280;8375;33.594;-117.718;2023-07-08T11:32:30;99787.25;;;15.21;99.01
16525;BME280;8375;33.594;-117.718;2023-07-08T11:35:02;99795.06;;;15.13;99.44
16525;BME280;8375;33.594;-117.718;2023-07-08T11:37:33;99791.81;;;15.19;99.44
16525;BME280;8375;33.594;-117.718;2023-07-08T11:40:08;99796.59;;;15.23;99.31
16525;BME280;8375;33.594;-117.718;2023-07-08T11:42:42;99787.09;;;15.22;100.00
16525;BME280;8375;33.594;-117.718;2023-07-08T11:45:21;99787.09;;;15.22;100.00
16525;BME280;8375;33.594;-117.718;2023-07-08T11:47:52;99795.44;;;15.26;100.00
16525;BME280;8375;33.594;-117.718;2023-07-08T11:50:22;99787.44;;;15.28;100.00
16525;BME280;8375;33.594;-117.718;2023-07-08T11:52:54;99795.94;;;15.30;100.00
16525;BME280;8375;33.594;-117.718;2023-07-08T11:55:24;99794.63;;;15.25;100.00
16525;BME280;8375;33.594;-117.718;2023-07-08T11:57:56;99791.19;;;15.25;100.00
16525;BME280;8375;33.594;-117.718;2023-07-08T12:00:31;99795.94;;;15.30;100.00
16525;BME280;8375;33.594;-117.718;2023-07-08T12:03:12;99794.13;;;15.30;100.00
16525;BME280;8375;33.594;-117.718;2023-07-08T12:05:45;99794.00;;;15.32;100.00
16525;BME280;8375;33.594;-117.718;2023-07-08T12:08:15;99797.75;;;15.37;100.00
16525;BME280;8375;33.594;-117.718;2023-07-08T12:10:48;99804.28;;;15.33;100.00
16525;BME280;8375;33.594;-117.718;2023-07-08T12:13:22;99803.28;;;15.26;100.00
16525;BME280;8375;33.594;-117.718;2023-07-08T12:15:51;99802.63;;;15.32;100.00
16525;BME280;8375;33.594;-117.718;2023-07-08T12:18:22;99815.56;;;15.34;100.00
16525;BME280;8375;33.594;-117.718;2023-07-08T12:20:54;99809.50;;;15.33;100.00
16525;BME280;8375;33.594;-117.718;2023-07-08T12:23:25;99815.41;;;15.35;100.00
16525;BME280;8375;33.594;-117.718;2023-07-08T12:25:55;99807.53;;;15.27;100.00
16525;BME280;8375;33.594;-117.718;2023-07-08T12:28:25;99807.19;;;15.22;100.00
16525;BME280;8375;33.594;-117.718;2023-07-08T12:30:54;99810.81;;;15.29;100.00
16525;BME280;8375;33.594;-117.718;2023-07-08T12:33:29;99813.59;;;15.28;100.00
16525;BME280;8375;33.594;-117.718;2023-07-08T12:36:00;99814.41;;;15.28;100.00
16525;BME280;8375;33.594;-117.718;2023-07-08T12:38:31;99807.06;;;15.32;100.00
16525;BME280;8375;33.594;-117.718;2023-07-08T12:41:05;99814.75;;;15.33;100.00
16525;BME280;8375;33.594;-117.718;2023-07-08T12:43:38;99818.84;;;15.36;100.00
16525;BME280;8375;33.594;-117.718;2023-07-08T12:46:09;99814.75;;;15.33;100.00
16525;BME280;8375;33.594;-117.718;2023-07-08T12:48:38;99816.69;;;15.31;100.00
16525;BME280;8375;33.594;-117.718;2023-07-08T12:51:11;99818.19;;;15.34;100.00
16525;BME280;8375;33.594;-117.718;2023-07-08T12:53:41;99818.00;;;15.35;100.00
16525;BME280;8375;33.594;-117.718;2023-07-08T12:56:11;99817.66;;;15.30;100.00
16525;BME280;8375;33.594;-117.718;2023-07-08T12:58:42;99815.69;;;15.24;100.00
16525;BME280;8375;33.594;-117.718;2023-07-08T13:01:17;99816.84;;;15.21;100.00